createdAt,value
2024-01-05T00:03:00.746Z,10.96
2024-01-05T00:08:03.175Z,12.83
2024-01-05T00:13:04.820Z,11.22
2024-01-05T00:18:07.695Z,12.36
2024-01-05T00:23:09.480Z,12.18
2024-01-05T00:28:11.181Z,13.23
2024-01-05T00:33:13.035Z,12.68
2024-01-05T00:38:14.757Z,12.77
2024-01-05T00:43:16.430Z,11.68
2024-01-05T00:48:18.249Z,12.13
2024-01-05T00:53:20.094Z,12.87
2024-01-05T00:58:21.916Z,13.31
2024-01-05T01:03:23.657Z,12.64
2024-01-05T01:08:25.317Z,12.48
2024-01-05T01:13:26.934Z,12.09
2024-01-05T01:18:29.020Z,12.87
2024-01-05T01:23:30.873Z,13.01
2024-01-05T01:28:32.516Z,13.77
2024-01-05T01:33:34.356Z,13.70
2024-01-05T01:38:36.188Z,12.66
2024-01-05T01:43:37.890Z,12.92
2024-01-05T01:48:41.872Z,11.43
2024-01-05T01:53:45.090Z,12.33
2024-01-05T01:58:47.284Z,13.87
2024-01-05T02:03:49.455Z,13.40
2024-01-05T02:08:52.369Z,13.31
2024-01-05T02:13:54.179Z,14.19
2024-01-05T02:18:56.654Z,11.50
2024-01-05T02:23:58.558Z,13.50
2024-01-05T02:29:03.901Z,12.48
2024-01-05T02:34:05.589Z,11.29
2024-01-05T02:39:07.282Z,11.33
2024-01-05T02:44:08.980Z,11.11
2024-01-05T02:49:10.792Z,10.77
2024-01-05T02:54:12.542Z,11.85
2024-01-05T02:59:15.186Z,10.60
2024-01-05T03:04:16.980Z,10.26
2024-01-05T03:09:18.807Z,12.37
2024-01-05T03:14:20.535Z,12.71
2024-01-05T03:19:22.286Z,12.49
2024-01-05T03:24:24.211Z,13.76
2024-01-05T03:29:26.014Z,13.45
2024-01-05T03:34:29.528Z,13.25
2024-01-05T03:39:31.360Z,13.20
2024-01-05T03:44:33.056Z,13.26
2024-01-05T03:49:35.036Z,12.62
2024-01-05T03:54:36.865Z,13.32
2024-01-05T03:59:38.549Z,11.38
2024-01-05T04:04:41.096Z,12.96
2024-01-05T04:09:42.839Z,13.48
2024-01-05T04:14:46.370Z,12.04
2024-01-05T04:19:48.699Z,12.87
2024-01-05T04:24:50.556Z,13.05
2024-01-05T04:29:52.244Z,12.69
2024-01-05T04:34:53.926Z,10.70
2024-01-05T04:39:55.632Z,9.20
2024-01-05T04:44:57.401Z,8.68
2024-01-05T04:49:59.134Z,9.62
2024-01-05T04:55:00.802Z,10.42
2024-01-05T05:00:02.469Z,12.00
2024-01-05T05:05:04.380Z,11.52
2024-01-05T05:10:06.543Z,10.79
2024-01-05T05:15:09.413Z,11.36
2024-01-05T05:20:11.719Z,10.18
2024-01-05T05:25:13.435Z,10.55
2024-01-05T05:30:15.414Z,10.44
2024-01-05T05:35:17.254Z,11.23
2024-01-05T05:40:19.046Z,11.32
2024-01-05T05:45:20.746Z,10.54
2024-01-05T05:50:22.433Z,11.33
2024-01-05T05:55:24.056Z,11.47
2024-01-05T06:00:26.337Z,11.50
2024-01-05T06:05:28.101Z,11.10
2024-01-05T06:10:29.759Z,11.58
2024-01-05T06:15:31.543Z,12.31
2024-01-05T06:20:33.279Z,11.43
2024-01-05T06:25:34.908Z,10.85
2024-01-05T06:30:36.669Z,10.46
2024-01-05T06:35:38.362Z,12.10
2024-01-05T06:40:40.029Z,11.94
2024-01-05T06:45:41.729Z,11.79
2024-01-05T06:50:43.458Z,11.18
2024-01-05T06:55:45.193Z,10.60
2024-01-05T07:00:46.936Z,11.68
2024-01-05T07:05:49.836Z,10.55
2024-01-05T07:10:51.534Z,12.63
2024-01-05T07:15:53.202Z,11.79
2024-01-05T07:20:54.960Z,13.14
2024-01-05T07:26:01.323Z,12.11
2024-01-05T07:31:06.873Z,11.93
2024-01-05T07:36:09.297Z,12.64
2024-01-05T07:41:19.313Z,12.93
2024-01-05T07:46:21.113Z,10.41
2024-01-05T07:51:23.545Z,11.80
2024-01-05T07:56:25.268Z,11.83
2024-01-05T08:01:27.109Z,10.48
2024-01-05T08:06:28.879Z,9.98
2024-01-05T08:11:30.694Z,9.09
2024-01-05T08:16:32.394Z,9.85
2024-01-05T08:21:34.168Z,8.72
2024-01-05T08:26:35.973Z,8.39
2024-01-05T08:31:37.602Z,9.91
2024-01-05T08:36:39.321Z,10.12
2024-01-05T08:41:43.579Z,8.74
2024-01-05T08:46:45.424Z,10.48
2024-01-05T08:51:47.195Z,8.01
2024-01-05T08:56:48.878Z,9.28
2024-01-05T09:01:50.596Z,9.74
2024-01-05T09:06:52.630Z,9.05
2024-01-05T09:11:54.322Z,8.76
2024-01-05T09:16:56.868Z,9.61
2024-01-05T09:22:00.661Z,10.34
2024-01-05T09:27:03.670Z,8.84
2024-01-05T09:32:05.847Z,10.91
2024-01-05T09:37:07.487Z,9.87
2024-01-05T09:42:10.089Z,11.40
2024-01-05T09:47:12.329Z,11.85
2024-01-05T09:52:15.079Z,11.11
2024-01-05T09:57:19.103Z,11.30
2024-01-05T10:02:52.193Z,12.43
2024-01-05T10:07:53.963Z,12.34
2024-01-05T10:13:06.220Z,12.81
2024-01-05T10:18:23.160Z,12.80
2024-01-05T10:23:27.163Z,10.15
2024-01-05T10:28:38.975Z,10.86
2024-01-05T10:33:54.789Z,12.05
2024-01-05T10:38:58.155Z,11.24
2024-01-05T10:43:59.998Z,12.29
2024-01-05T10:49:01.843Z,12.54
2024-01-05T10:54:03.956Z,11.88
2024-01-05T10:59:05.597Z,13.63
2024-01-05T11:06:13.672Z,9.62
2024-01-05T11:11:34.975Z,9.09
2024-01-05T11:16:45.544Z,10.76
2024-01-05T11:21:55.783Z,10.37
2024-01-05T11:26:57.478Z,11.04
2024-01-05T11:31:59.127Z,10.54
2024-01-05T11:37:02.067Z,10.29
2024-01-05T11:42:04.389Z,10.75
2024-01-05T11:47:06.178Z,10.55
2024-01-05T11:52:09.025Z,10.77
2024-01-05T11:57:10.650Z,10.54
2024-01-05T12:02:18.634Z,11.33
2024-01-05T12:07:21.964Z,11.83
2024-01-05T12:12:24.599Z,11.26
2024-01-05T12:17:26.264Z,9.91
2024-01-05T12:22:27.957Z,10.38
2024-01-05T12:27:40.117Z,12.18
2024-01-05T12:32:42.505Z,11.40
2024-01-05T12:37:52.316Z,10.84
2024-01-05T12:42:54.728Z,12.41
2024-01-05T12:47:56.379Z,11.83
2024-01-05T12:52:57.978Z,11.79
2024-01-05T12:58:06.556Z,12.70
2024-01-05T13:03:17.522Z,12.83
2024-01-05T13:08:19.179Z,13.07
2024-01-05T13:13:20.870Z,12.70
2024-01-05T13:18:22.523Z,11.34
2024-01-05T13:23:27.831Z,12.78
2024-01-05T13:28:30.225Z,11.63
2024-01-05T13:33:33.020Z,12.35
2024-01-05T13:38:34.778Z,11.38
2024-01-05T13:43:36.649Z,12.53
2024-01-05T13:48:38.577Z,11.69
2024-01-05T13:53:40.246Z,11.69
2024-01-05T13:58:41.895Z,13.17
2024-01-05T14:03:43.996Z,12.78
2024-01-05T14:08:45.596Z,11.40
2024-01-05T14:13:47.146Z,11.63
2024-01-05T14:18:51.395Z,12.49
2024-01-05T14:23:53.496Z,13.10
2024-01-05T14:28:55.797Z,13.26
2024-01-05T14:33:58.839Z,12.05
2024-01-05T14:39:00.926Z,12.41
2024-01-05T14:44:02.598Z,11.94
2024-01-05T14:49:06.354Z,13.41
2024-01-05T14:54:08.188Z,13.73
2024-01-05T14:59:09.787Z,12.48
2024-01-05T15:04:11.499Z,13.57
2024-01-05T15:09:13.511Z,13.40
2024-01-05T15:14:15.200Z,12.73
2024-01-05T15:19:17.806Z,13.44
2024-01-05T15:24:19.552Z,12.88
2024-01-05T15:29:22.173Z,11.72
2024-01-05T15:34:23.868Z,12.87
2024-01-05T15:39:25.558Z,11.38
2024-01-05T15:44:27.290Z,10.41
2024-01-05T15:49:29.007Z,10.35
2024-01-05T15:54:30.888Z,11.29
2024-01-05T15:59:34.068Z,11.03
2024-01-05T16:04:36.298Z,9.95
2024-01-05T16:09:38.112Z,12.40
2024-01-05T16:14:48.244Z,10.76
2024-01-05T16:19:50.056Z,10.86
2024-01-05T16:24:51.686Z,10.49
2024-01-05T16:29:53.341Z,10.81
2024-01-05T16:34:55.076Z,10.38
2024-01-05T16:39:56.755Z,11.27
2024-01-05T16:44:58.410Z,11.22
2024-01-05T16:50:00.302Z,12.52
2024-01-05T16:55:02.402Z,11.69
2024-01-05T17:00:06.061Z,11.37
2024-01-05T17:05:07.969Z,11.24
2024-01-05T17:10:09.678Z,11.03
2024-01-05T17:15:11.483Z,10.75
2024-01-05T17:20:21.814Z,11.53
2024-01-05T17:25:27.090Z,11.34
2024-01-05T17:30:28.771Z,11.65
2024-01-05T17:35:30.430Z,11.89
2024-01-05T17:40:32.014Z,11.60
2024-01-05T17:45:33.603Z,11.24
2024-01-05T17:50:35.286Z,10.50
2024-01-05T17:55:36.923Z,9.74
2024-01-05T18:00:38.718Z,10.41
2024-01-05T18:05:40.359Z,10.17
2024-01-05T18:10:42.236Z,10.08
2024-01-05T18:15:43.893Z,9.43
2024-01-05T18:20:45.528Z,10.07
2024-01-05T18:25:47.340Z,11.78
2024-01-05T18:30:50.031Z,11.23
2024-01-05T18:35:51.842Z,10.54
2024-01-05T18:40:53.522Z,10.61
2024-01-05T18:45:55.235Z,10.71
2024-01-05T18:50:56.912Z,9.99
2024-01-05T18:55:58.827Z,10.51
2024-01-05T19:01:00.573Z,10.52
2024-01-05T19:06:02.380Z,11.45
2024-01-05T19:11:04.976Z,11.56
2024-01-05T19:16:09.834Z,11.18
2024-01-05T19:21:11.532Z,10.83
2024-01-05T19:26:22.748Z,11.39
2024-01-05T19:31:24.517Z,11.03
2024-01-05T19:36:26.170Z,11.64
2024-01-05T19:41:27.740Z,11.59
2024-01-05T19:46:30.199Z,11.07
2024-01-05T19:51:32.111Z,9.65
2024-01-05T19:56:33.733Z,12.48
2024-01-05T20:01:37.298Z,12.25
2024-01-05T20:06:39.735Z,12.08
2024-01-05T20:11:41.970Z,11.05
2024-01-05T20:16:44.364Z,11.32
2024-01-05T20:21:47.142Z,11.25
2024-01-05T20:26:51.940Z,10.30
2024-01-05T20:31:55.301Z,10.66
2024-01-05T20:36:57.137Z,10.94
2024-01-05T20:41:58.756Z,10.61
2024-01-05T20:47:00.370Z,10.62
2024-01-05T20:52:01.967Z,10.31
2024-01-05T20:57:03.837Z,10.22
2024-01-05T21:02:05.761Z,10.26
2024-01-05T21:07:07.768Z,10.60
2024-01-05T21:12:10.433Z,10.78
2024-01-05T21:17:12.149Z,9.69
2024-01-05T21:22:13.778Z,9.45
2024-01-05T21:27:16.018Z,9.39
2024-01-05T21:32:20.679Z,9.77
2024-01-05T21:37:23.026Z,10.02
2024-01-05T21:42:24.730Z,9.58
2024-01-05T21:47:28.083Z,9.14
2024-01-05T21:52:29.765Z,9.35
2024-01-05T21:57:32.863Z,8.93
2024-01-05T22:02:35.284Z,9.53
2024-01-05T22:07:38.190Z,8.91
2024-01-05T22:12:39.883Z,8.70
2024-01-05T22:17:41.703Z,9.19
2024-01-05T22:22:43.409Z,9.64
2024-01-05T22:27:46.285Z,9.89
2024-01-05T22:32:47.962Z,9.87
2024-01-05T22:37:49.664Z,9.87
2024-01-05T22:42:51.439Z,9.84
2024-01-05T22:47:53.408Z,10.18
2024-01-05T22:52:55.124Z,9.88
2024-01-05T22:57:56.728Z,10.69
2024-01-05T23:02:58.426Z,9.52
2024-01-05T23:08:00.169Z,10.23
2024-01-05T23:13:02.953Z,9.52
2024-01-05T23:18:05.950Z,9.43
2024-01-05T23:23:07.951Z,9.87
2024-01-05T23:28:09.644Z,9.52
2024-01-05T23:33:11.834Z,9.26
2024-01-05T23:38:13.706Z,9.06
2024-01-05T23:43:15.385Z,9.32
2024-01-05T23:48:17.186Z,8.93
2024-01-05T23:53:19.152Z,8.63
2024-01-05T23:58:20.826Z,8.84
